Time;durP1;ratioP1;P1;durP2;ratioP2;P2;SDS_P1;SDS_P2;PMS_P1;PMS_P2;Temp;Humidity;BMP_temperature;BMP_pressure;BME280_temperature;BME280_humidity;BME280_pressure;Samples;Min_cycle;Max_cycle;Signal;HPM_P1;HPM_P2
2022/10/10 00:02:02;;;;;;;3.78;2.05;;;;;;;;;;5084532;28;20040;-69
2022/10/10 00:04:28;;;;;;;3.80;2.25;;;;;;;;;;5087267;28;20401;-69
2022/10/10 00:06:53;;;;;;;3.38;2.10;;;;;;;;;;5087517;28;20044;-65
2022/10/10 00:09:19;;;;;;;5.07;2.35;;;;;;;;;;5080941;28;20039;-64
2022/10/10 00:11:44;;;;;;;3.47;2.10;;;;;;;;;;5088201;28;20070;-62
2022/10/10 00:14:09;;;;;;;3.25;1.98;;;;;;;;;;5080838;28;20048;-62
2022/10/10 00:16:35;;;;;;;4.68;2.00;;;;;;;;;;5082777;28;20047;-62
2022/10/10 00:19:00;;;;;;;2.92;2.08;;;;;;;;;;5083125;28;20513;-62
2022/10/10 00:21:26;;;;;;;4.18;2.05;;;;;;;;;;5081370;28;20475;-59
2022/10/10 00:23:51;;;;;;;3.70;2.20;;;;;;;;;;5084179;28;20044;-59
2022/10/10 00:26:16;;;;;;;5.13;2.30;;;;;;;;;;5087337;28;20109;-69
2022/10/10 00:28:42;;;;;;;4.75;1.80;;;;;;;;;;5084853;28;20127;-69
2022/10/10 00:31:08;;;;;;;5.97;1.90;;;;;;;;;;5086093;28;20068;-61
2022/10/10 00:33:34;;;;;;;5.20;2.10;;;;;;;;;;5085443;28;20626;-62
2022/10/10 00:35:59;;;;;;;4.82;2.05;;;;;;;;;;5086276;28;20115;-69
2022/10/10 00:38:25;;;;;;;5.28;1.80;;;;;;;;;;5083005;28;20510;-70
2022/10/10 00:40:54;;;;;;;6.05;2.22;;;;;;;;;;5087495;28;20036;-70
2022/10/10 00:43:21;;;;;;;3.95;1.75;;;;;;;;;;5088875;28;20040;-70
2022/10/10 00:45:47;;;;;;;4.40;1.92;;;;;;;;;;5085633;28;20100;-70
2022/10/10 00:48:12;;;;;;;5.05;1.95;;;;;;;;;;5089335;28;20023;-72
2022/10/10 00:50:43;;;;;;;3.30;1.88;;;;;;;;;;5083321;28;20126;-70
2022/10/10 00:53:11;;;;;;;3.17;1.88;;;;;;;;;;5083094;28;20163;-68
2022/10/10 00:55:37;;;;;;;3.28;2.00;;;;;;;;;;5080104;28;20063;-62
2022/10/10 00:58:05;;;;;;;4.88;2.15;;;;;;;;;;5084420;28;20036;-61
2022/10/10 01:00:30;;;;;;;6.03;2.00;;;;;;;;;;5084033;28;20032;-61
2022/10/10 01:02:56;;;;;;;7.28;1.90;;;;;;;;;;5086189;28;20490;-60
2022/10/10 01:05:21;;;;;;;5.05;2.03;;;;;;;;;;5084586;28;20044;-66
2022/10/10 01:07:47;;;;;;;4.10;1.90;;;;;;;;;;5082797;28;20131;-67
2022/10/10 01:10:19;;;;;;;4.60;2.10;;;;;;;;;;5086023;28;20104;-68
2022/10/10 01:12:52;;;;;;;3.10;1.60;;;;;;;;;;5083406;28;20518;-68
2022/10/10 01:15:37;;;;;;;6.53;2.10;;;;;;;;;;5085833;28;20031;-68
2022/10/10 01:18:09;;;;;;;2.50;1.80;;;;;;;;;;5085206;28;20052;-61
2022/10/10 01:20:35;;;;;;;2.50;1.75;;;;;;;;;;5084479;28;20051;-68
2022/10/10 01:23:25;;;;;;;2.90;2.00;;;;;;;;;;5085082;28;20040;-68
2022/10/10 01:26:05;;;;;;;5.20;2.10;;;;;;;;;;5084611;28;20162;-68
2022/10/10 01:28:50;;;;;;;4.00;2.25;;;;;;;;;;5083121;28;20043;-68
2022/10/10 01:31:21;;;;;;;4.03;1.88;;;;;;;;;;5079792;28;20048;-68
2022/10/10 01:33:58;;;;;;;4.00;2.15;;;;;;;;;;5083301;28;20188;-69
2022/10/10 01:36:37;;;;;;;4.55;2.28;;;;;;;;;;5079678;28;20103;-70
2022/10/10 01:39:09;;;;;;;6.43;2.45;;;;;;;;;;5082069;28;20400;-70
2022/10/10 01:41:45;;;;;;;2.08;1.88;;;;;;;;;;5084247;28;20040;-60
2022/10/10 01:44:11;;;;;;;4.97;2.40;;;;;;;;;;5083527;28;20047;-60
2022/10/10 01:46:36;;;;;;;3.72;1.92;;;;;;;;;;5082708;28;20070;-70
2022/10/10 01:49:02;;;;;;;3.08;2.08;;;;;;;;;;5078553;28;20052;-70
2022/10/10 01:51:48;;;;;;;5.60;1.90;;;;;;;;;;5083574;28;20052;-70
2022/10/10 01:54:40;;;;;;;3.20;1.90;;;;;;;;;;5079339;28;20064;-69
2022/10/10 01:57:36;;;;;;;4.35;2.20;;;;;;;;;;5081871;28;20094;-70
2022/10/10 02:00:04;;;;;;;4.15;1.95;;;;;;;;;;5082402;28;20135;-70
2022/10/10 02:02:55;;;;;;;5.22;2.05;;;;;;;;;;5080308;28;20138;-65
2022/10/10 02:06:02;;;;;;;6.20;2.03;;;;;;;;;;5082170;28;20077;-63
2022/10/10 02:08:34;;;;;;;2.28;2.00;;;;;;;;;;5063672;28;20048;-63
2022/10/10 02:11:02;;;;;;;3.17;2.20;;;;;;;;;;5078259;28;20131;-70
2022/10/10 02:13:35;;;;;;;2.72;1.88;;;;;;;;;;5079392;28;20044;-70
2022/10/10 02:16:03;;;;;;;6.85;2.22;;;;;;;;;;5082515;28;20052;-68
2022/10/10 02:18:31;;;;;;;6.88;2.08;;;;;;;;;;5082247;28;20051;-63
2022/10/10 02:20:58;;;;;;;4.10;2.15;;;;;;;;;;5081429;28;21253;-64
2022/10/10 02:23:24;;;;;;;4.63;2.05;;;;;;;;;;5081206;28;20079;-63
2022/10/10 02:25:52;;;;;;;4.40;2.00;;;;;;;;;;5081486;28;20048;-70
2022/10/10 02:28:28;;;;;;;3.60;2.10;;;;;;;;;;5083495;28;20621;-71
2022/10/10 02:30:58;;;;;;;5.15;2.10;;;;;;;;;;5084090;28;20048;-68
2022/10/10 02:33:31;;;;;;;4.05;1.95;;;;;;;;;;5079739;28;20068;-68
2022/10/10 02:35:59;;;;;;;4.68;1.95;;;;;;;;;;5083751;28;20048;-63
2022/10/10 02:38:25;;;;;;;4.00;2.05;;;;;;;;;;5081741;28;20059;-64
2022/10/10 02:40:52;;;;;;;7.13;1.98;;;;;;;;;;5083647;28;20052;-62
2022/10/10 02:43:19;;;;;;;3.95;2.10;;;;;;;;;;5078342;28;20187;-62
2022/10/10 02:45:44;;;;;;;5.88;2.15;;;;;;;;;;5080758;28;20155;-62
2022/10/10 02:48:10;;;;;;;3.22;1.90;;;;;;;;;;5079264;28;20119;-63
2022/10/10 02:50:35;;;;;;;7.65;2.00;;;;;;;;;;5080450;28;20046;-70
2022/10/10 02:53:01;;;;;;;2.85;1.85;;;;;;;;;;5080172;28;20048;-69
2022/10/10 02:55:26;;;;;;;3.78;1.80;;;;;;;;;;5081031;28;20070;-62
2022/10/10 02:57:52;;;;;;;7.18;2.20;;;;;;;;;;5078832;28;20466;-63
2022/10/10 03:00:17;;;;;;;3.33;2.05;;;;;;;;;;5080748;28;20089;-62
2022/10/10 03:02:43;;;;;;;4.88;1.85;;;;;;;;;;5079842;28;20464;-62
2022/10/10 03:05:09;;;;;;;3.25;1.73;;;;;;;;;;5081897;28;20069;-62
2022/10/10 03:07:34;;;;;;;2.97;1.70;;;;;;;;;;5080344;28;20055;-70
2022/10/10 03:10:00;;;;;;;3.45;2.00;;;;;;;;;;5078194;28;20048;-70
2022/10/10 03:12:25;;;;;;;4.13;2.30;;;;;;;;;;5078959;28;20027;-70
2022/10/10 03:14:50;;;;;;;3.25;2.13;;;;;;;;;;5080556;28;20048;-70
2022/10/10 03:17:16;;;;;;;2.50;1.80;;;;;;;;;;5082874;28;20048;-68
2022/10/10 03:19:41;;;;;;;4.72;2.08;;;;;;;;;;5081917;28;20048;-69
2022/10/10 03:22:06;;;;;;;3.42;1.73;;;;;;;;;;5082175;28;20052;-70
2022/10/10 03:24:32;;;;;;;4.03;2.13;;;;;;;;;;5080135;28;20099;-69
2022/10/10 03:26:57;;;;;;;3.33;1.95;;;;;;;;;;5082809;28;20223;-63
2022/10/10 03:29:23;;;;;;;3.65;2.10;;;;;;;;;;5081050;28;20055;-63
2022/10/10 03:31:48;;;;;;;4.18;2.22;;;;;;;;;;5077241;28;20486;-59
2022/10/10 03:34:14;;;;;;;2.80;2.00;;;;;;;;;;5078538;28;20056;-66
2022/10/10 03:36:39;;;;;;;3.40;2.40;;;;;;;;;;5080220;28;20043;-63
2022/10/10 03:39:06;;;;;;;2.80;2.08;;;;;;;;;;5077326;28;20474;-59
2022/10/10 03:41:32;;;;;;;3.25;2.15;;;;;;;;;;5079928;28;20131;-62
2022/10/10 03:43:57;;;;;;;6.40;2.22;;;;;;;;;;5082750;28;20130;-66
2022/10/10 03:46:23;;;;;;;6.65;2.05;;;;;;;;;;5080502;28;20048;-65
2022/10/10 03:48:48;;;;;;;10.20;4.03;;;;;;;;;;5081078;28;20131;-65
2022/10/10 03:51:14;;;;;;;8.05;2.28;;;;;;;;;;5081336;28;20069;-69
2022/10/10 03:53:40;;;;;;;6.35;2.40;;;;;;;;;;5083415;28;20566;-70
2022/10/10 03:56:05;;;;;;;4.57;2.22;;;;;;;;;;5080576;28;20134;-65
2022/10/10 03:58:31;;;;;;;3.72;1.98;;;;;;;;;;5079670;28;20054;-65
2022/10/10 04:00:58;;;;;;;4.95;2.05;;;;;;;;;;5077981;28;20082;-62
2022/10/10 04:03:24;;;;;;;2.40;1.83;;;;;;;;;;5083932;28;20024;-65
2022/10/10 04:05:50;;;;;;;2.72;2.17;;;;;;;;;;5081612;28;20051;-63
2022/10/10 04:08:16;;;;;;;4.88;2.40;;;;;;;;;;5079464;28;20117;-66
2022/10/10 04:10:42;;;;;;;6.53;2.10;;;;;;;;;;5080749;28;20060;-60
2022/10/10 04:13:07;;;;;;;2.83;2.13;;;;;;;;;;5080840;28;20439;-61
2022/10/10 04:15:33;;;;;;;5.72;2.20;;;;;;;;;;5078788;28;20040;-61
2022/10/10 04:17:59;;;;;;;5.53;2.10;;;;;;;;;;5080474;28;20031;-61
2022/10/10 04:20:25;;;;;;;4.32;2.13;;;;;;;;;;5082628;28;20808;-57
2022/10/10 04:22:50;;;;;;;3.47;1.83;;;;;;;;;;5083131;28;20169;-58
2022/10/10 04:25:16;;;;;;;4.60;2.15;;;;;;;;;;5081370;28;20040;-59
2022/10/10 04:27:42;;;;;;;2.95;2.25;;;;;;;;;;5082132;28;20036;-60
2022/10/10 04:30:09;;;;;;;5.57;2.10;;;;;;;;;;5078758;28;20028;-59
2022/10/10 04:32:35;;;;;;;5.72;2.45;;;;;;;;;;5083983;28;20098;-63
2022/10/10 04:35:00;;;;;;;6.97;2.58;;;;;;;;;;5085252;28;20056;-63
2022/10/10 04:37:26;;;;;;;3.00;2.38;;;;;;;;;;5085551;28;20040;-63
2022/10/10 04:39:51;;;;;;;3.10;2.17;;;;;;;;;;5083201;28;20047;-62
2022/10/10 04:42:17;;;;;;;4.63;2.20;;;;;;;;;;5079961;28;20032;-70
2022/10/10 04:44:42;;;;;;;3.00;2.30;;;;;;;;;;5084507;28;20653;-68
2022/10/10 04:47:07;;;;;;;4.60;2.35;;;;;;;;;;5083808;28;20104;-70
2022/10/10 04:49:33;;;;;;;3.85;2.30;;;;;;;;;;5084447;28;20146;-70
2022/10/10 04:51:58;;;;;;;3.33;2.38;;;;;;;;;;5084049;28;20047;-63
2022/10/10 04:54:24;;;;;;;4.25;2.17;;;;;;;;;;5079973;28;20064;-63
2022/10/10 04:56:49;;;;;;;6.75;2.75;;;;;;;;;;5083629;28;20059;-65
2022/10/10 04:59:15;;;;;;;6.95;2.70;;;;;;;;;;5084162;28;20087;-63
2022/10/10 05:01:40;;;;;;;5.90;2.35;;;;;;;;;;5084552;28;20139;-67
2022/10/10 05:04:05;;;;;;;6.28;2.38;;;;;;;;;;5084044;28;20048;-73
2022/10/10 05:06:31;;;;;;;7.25;2.67;;;;;;;;;;5082885;28;20028;-65
2022/10/10 05:08:56;;;;;;;5.22;2.50;;;;;;;;;;5081764;28;20737;-66
2022/10/10 05:11:22;;;;;;;4.78;2.72;;;;;;;;;;5081656;28;20036;-68
2022/10/10 05:13:49;;;;;;;4.65;2.55;;;;;;;;;;5081316;28;20055;-63
2022/10/10 05:16:15;;;;;;;10.93;2.70;;;;;;;;;;5085735;28;20127;-70
2022/10/10 05:18:40;;;;;;;6.68;2.90;;;;;;;;;;5082058;28;20063;-70
2022/10/10 05:21:06;;;;;;;11.70;3.00;;;;;;;;;;5085900;28;20059;-59
2022/10/10 05:23:32;;;;;;;7.38;2.65;;;;;;;;;;5084690;28;20538;-61
2022/10/10 05:25:58;;;;;;;5.22;2.83;;;;;;;;;;5078387;28;20040;-62
2022/10/10 05:28:23;;;;;;;4.90;3.28;;;;;;;;;;5081378;28;20054;-59
2022/10/10 05:30:50;;;;;;;7.28;3.10;;;;;;;;;;5081891;28;20056;-67
2022/10/10 05:33:15;;;;;;;7.55;3.78;;;;;;;;;;5085613;28;20028;-69
2022/10/10 05:35:40;;;;;;;7.40;3.10;;;;;;;;;;5085674;28;20097;-69
2022/10/10 05:38:06;;;;;;;7.88;3.42;;;;;;;;;;5082902;28;20046;-70
2022/10/10 05:40:31;;;;;;;8.77;3.50;;;;;;;;;;5081939;28;20104;-66
2022/10/10 05:42:57;;;;;;;5.60;3.00;;;;;;;;;;5082933;28;20047;-66
2022/10/10 05:45:22;;;;;;;8.90;3.30;;;;;;;;;;5080388;28;20032;-60
2022/10/10 05:47:48;;;;;;;4.72;3.47;;;;;;;;;;5079240;28;20044;-60
2022/10/10 05:50:47;;;;;;;7.53;3.63;;;;;;;;;;5082661;28;20048;-59
2022/10/10 05:53:12;;;;;;;8.27;3.55;;;;;;;;;;5067213;28;20086;-64
2022/10/10 05:55:38;;;;;;;5.03;3.25;;;;;;;;;;5081025;28;20072;-60
2022/10/10 05:58:03;;;;;;;6.47;3.13;;;;;;;;;;5074737;28;20083;-60
2022/10/10 06:00:29;;;;;;;4.18;2.97;;;;;;;;;;5078655;28;20036;-64
2022/10/10 06:02:57;;;;;;;5.85;3.28;;;;;;;;;;5083972;28;20023;-64
2022/10/10 06:05:23;;;;;;;5.55;3.40;;;;;;;;;;5080557;28;20054;-63
2022/10/10 06:07:48;;;;;;;7.20;3.75;;;;;;;;;;5084325;28;20501;-64
2022/10/10 06:10:13;;;;;;;5.22;3.17;;;;;;;;;;5081679;28;20044;-66
2022/10/10 06:12:39;;;;;;;5.90;3.30;;;;;;;;;;5077485;28;20142;-66
2022/10/10 06:15:05;;;;;;;8.32;4.68;;;;;;;;;;5081200;28;20036;-63
2022/10/10 06:17:30;;;;;;;7.40;3.58;;;;;;;;;;5079844;28;20544;-68
2022/10/10 06:19:56;;;;;;;6.50;3.55;;;;;;;;;;5080216;28;20052;-66
2022/10/10 06:22:21;;;;;;;6.25;3.40;;;;;;;;;;5080311;28;20054;-60
2022/10/10 06:24:47;;;;;;;5.15;2.97;;;;;;;;;;5083212;28;20097;-58
2022/10/10 06:27:12;;;;;;;9.13;4.18;;;;;;;;;;5086729;28;20063;-61
2022/10/10 06:29:37;;;;;;;7.88;3.35;;;;;;;;;;5082554;28;20055;-61
2022/10/10 06:32:03;;;;;;;5.85;3.20;;;;;;;;;;5085225;28;20118;-62
2022/10/10 06:34:28;;;;;;;4.80;3.25;;;;;;;;;;5081350;28;20050;-62
2022/10/10 06:36:54;;;;;;;5.68;3.42;;;;;;;;;;5082134;28;20052;-64
2022/10/10 06:39:19;;;;;;;9.45;4.10;;;;;;;;;;5082952;28;20095;-65
2022/10/10 06:41:44;;;;;;;7.40;3.58;;;;;;;;;;5079618;28;20050;-66
2022/10/10 06:44:10;;;;;;;7.32;3.67;;;;;;;;;;5082090;28;20031;-67
2022/10/10 06:46:36;;;;;;;5.65;3.30;;;;;;;;;;5083920;28;20127;-67
2022/10/10 06:49:05;;;;;;;7.47;3.78;;;;;;;;;;5083110;28;20055;-67
2022/10/10 06:51:30;;;;;;;8.73;3.88;;;;;;;;;;5081133;28;20034;-65
2022/10/10 06:53:57;;;;;;;7.18;3.95;;;;;;;;;;5083451;28;20475;-65
2022/10/10 06:56:23;;;;;;;6.40;3.60;;;;;;;;;;5079132;28;20044;-66
2022/10/10 06:58:49;;;;;;;9.35;3.70;;;;;;;;;;5079224;28;20047;-65
2022/10/10 07:01:18;;;;;;;5.82;3.03;;;;;;;;;;5078316;28;20506;-65
2022/10/10 07:03:44;;;;;;;6.18;2.95;;;;;;;;;;5074189;28;20398;-64
2022/10/10 07:06:10;;;;;;;5.32;3.05;;;;;;;;;;5081786;28;20039;-57
2022/10/10 07:08:36;;;;;;;7.80;3.45;;;;;;;;;;5079327;28;20058;-54
2022/10/10 07:11:01;;;;;;;5.82;3.38;;;;;;;;;;5082645;28;20044;-55
2022/10/10 07:13:27;;;;;;;5.78;3.30;;;;;;;;;;5082350;28;20044;-56
2022/10/10 07:15:52;;;;;;;7.20;3.35;;;;;;;;;;5077326;28;20032;-57
2022/10/10 07:18:18;;;;;;;6.32;3.90;;;;;;;;;;5086458;28;20028;-55
2022/10/10 07:20:44;;;;;;;10.63;3.55;;;;;;;;;;5081642;28;20059;-58
2022/10/10 07:23:09;;;;;;;5.53;3.30;;;;;;;;;;5077160;28;20048;-58
2022/10/10 07:25:40;;;;;;;4.95;3.35;;;;;;;;;;5080479;28;20055;-57
2022/10/10 07:28:06;;;;;;;5.57;3.60;;;;;;;;;;5098547;28;20036;-54
2022/10/10 07:30:32;;;;;;;6.70;3.80;;;;;;;;;;5076347;28;20024;-56
2022/10/10 07:32:57;;;;;;;7.22;3.78;;;;;;;;;;5086930;28;20036;-57
2022/10/10 07:35:23;;;;;;;6.45;3.65;;;;;;;;;;5078789;28;20049;-57
2022/10/10 07:37:53;;;;;;;4.30;3.10;;;;;;;;;;5083332;28;20090;-57
2022/10/10 07:40:19;;;;;;;7.35;3.70;;;;;;;;;;5076951;28;20124;-56
2022/10/10 07:42:44;;;;;;;8.60;4.03;;;;;;;;;;5080182;28;20083;-58
2022/10/10 07:45:11;;;;;;;6.68;3.95;;;;;;;;;;5079525;28;20467;-56
2022/10/10 07:47:37;;;;;;;8.07;4.07;;;;;;;;;;5079269;28;20534;-59
2022/10/10 07:50:05;;;;;;;5.40;3.72;;;;;;;;;;5079540;28;20048;-59
2022/10/10 07:52:30;;;;;;;6.72;4.03;;;;;;;;;;5078698;28;20040;-56
2022/10/10 07:54:56;;;;;;;7.18;4.05;;;;;;;;;;5085242;28;20044;-56
2022/10/10 07:57:21;;;;;;;6.05;4.25;;;;;;;;;;5077623;28;20102;-57
2022/10/10 07:59:47;;;;;;;7.57;4.18;;;;;;;;;;5085022;28;20090;-59
2022/10/10 08:02:12;;;;;;;8.32;4.88;;;;;;;;;;5085242;28;20085;-59
2022/10/10 08:04:38;;;;;;;6.78;3.97;;;;;;;;;;5090718;28;20039;-57
2022/10/10 08:07:04;;;;;;;5.60;4.05;;;;;;;;;;5088152;28;20449;-55
2022/10/10 08:09:29;;;;;;;8.60;4.20;;;;;;;;;;5091222;28;20032;-59
2022/10/10 08:11:54;;;;;;;6.00;4.30;;;;;;;;;;5087811;28;20038;-56
2022/10/10 08:14:20;;;;;;;6.03;4.20;;;;;;;;;;5090300;28;20125;-54
2022/10/10 08:16:45;;;;;;;8.55;4.55;;;;;;;;;;5086627;28;20052;-56
2022/10/10 08:19:10;;;;;;;7.60;4.75;;;;;;;;;;5089827;28;20056;-58
2022/10/10 08:21:36;;;;;;;7.78;4.68;;;;;;;;;;5089943;28;20036;-56
2022/10/10 08:24:02;;;;;;;8.38;4.35;;;;;;;;;;5091491;28;20051;-60
2022/10/10 08:26:27;;;;;;;7.97;4.60;;;;;;;;;;5088959;28;20147;-56
2022/10/10 08:28:52;;;;;;;8.80;4.75;;;;;;;;;;5087571;28;20135;-52
2022/10/10 08:31:20;;;;;;;8.93;4.38;;;;;;;;;;5089491;28;20036;-57
2022/10/10 08:33:46;;;;;;;8.55;4.43;;;;;;;;;;5089606;28;20028;-57
2022/10/10 08:36:15;;;;;;;7.03;3.95;;;;;;;;;;5088703;28;20039;-59
2022/10/10 08:38:40;;;;;;;7.22;4.60;;;;;;;;;;5087722;28;20699;-65
2022/10/10 08:41:09;;;;;;;7.93;4.15;;;;;;;;;;5089948;28;20040;-54
2022/10/10 08:43:40;;;;;;;4.70;3.67;;;;;;;;;;5084407;28;20467;-56
2022/10/10 08:46:17;;;;;;;11.00;4.40;;;;;;;;;;5087030;28;20044;-56
2022/10/10 08:48:44;;;;;;;8.15;4.15;;;;;;;;;;5089842;28;20093;-56
2022/10/10 08:51:16;;;;;;;8.57;4.50;;;;;;;;;;5090505;28;20404;-57
2022/10/10 08:53:48;;;;;;;10.13;4.85;;;;;;;;;;5089434;28;20043;-55
2022/10/10 08:56:22;;;;;;;11.68;6.15;;;;;;;;;;5087454;28;20052;-58
2022/10/10 08:58:54;;;;;;;15.23;6.75;;;;;;;;;;5084058;28;20482;-56
2022/10/10 09:01:23;;;;;;;16.55;7.65;;;;;;;;;;5087542;28;20474;-54
2022/10/10 09:03:54;;;;;;;18.52;8.95;;;;;;;;;;5088375;28;20053;-57
2022/10/10 09:06:53;;;;;;;18.20;9.15;;;;;;;;;;5088788;28;20024;-58
2022/10/10 09:09:42;;;;;;;15.18;8.25;;;;;;;;;;5088916;28;20032;-57
2022/10/10 09:12:51;;;;;;;20.73;8.00;;;;;;;;;;5087723;28;20386;-61
2022/10/10 09:15:57;;;;;;;13.75;6.55;;;;;;;;;;5085553;28;20133;-57
2022/10/10 09:18:44;;;;;;;15.63;6.63;;;;;;;;;;5086412;28;20505;-55
2022/10/10 09:21:38;;;;;;;19.25;6.70;;;;;;;;;;5088945;28;20063;-56
2022/10/10 09:24:13;;;;;;;;;;;;;;;;;;5090049;28;20136;-57
2022/10/10 09:26:46;;;;;;;11.77;6.03;;;;;;;;;;5087595;28;20006;-58
2022/10/10 09:29:33;;;;;;;12.98;6.82;;;;;;;;;;5088988;28;20044;-58
2022/10/10 09:32:15;;;;;;;10.85;6.20;;;;;;;;;;5084448;28;20440;-57
2022/10/10 09:34:45;;;;;;;12.10;5.90;;;;;;;;;;5088298;28;20127;-58
2022/10/10 09:37:16;;;;;;;11.23;6.22;;;;;;;;;;5088115;28;20151;-56
2022/10/10 09:39:54;;;;;;;9.48;5.70;;;;;;;;;;5089378;28;20066;-57
2022/10/10 09:42:30;;;;;;;9.00;5.18;;;;;;;;;;5088717;28;20043;-56
2022/10/10 09:44:56;;;;;;;13.27;5.38;;;;;;;;;;5088283;28;20047;-58
2022/10/10 09:47:21;;;;;;;8.70;5.13;;;;;;;;;;5085069;28;20124;-57
2022/10/10 09:49:47;;;;;;;10.15;5.40;;;;;;;;;;5088778;28;20048;-57
2022/10/10 09:52:30;;;;;;;7.25;4.65;;;;;;;;;;5086479;28;20049;-57
2022/10/10 09:55:00;;;;;;;8.15;4.75;;;;;;;;;;5085280;28;20135;-56
2022/10/10 09:57:31;;;;;;;12.20;5.15;;;;;;;;;;5087295;28;20039;-57
2022/10/10 09:59:56;;;;;;;10.10;5.60;;;;;;;;;;5088594;28;20052;-58
2022/10/10 10:02:25;;;;;;;10.73;5.20;;;;;;;;;;5087418;28;20082;-57
2022/10/10 10:04:51;;;;;;;8.45;5.35;;;;;;;;;;5085462;28;20040;-56
2022/10/10 10:07:32;;;;;;;9.25;5.97;;;;;;;;;;5088071;28;20071;-65
2022/10/10 10:10:03;;;;;;;12.35;5.57;;;;;;;;;;5089163;28;20051;-65
2022/10/10 10:12:36;;;;;;;7.20;5.10;;;;;;;;;;5103796;28;20578;-65
2022/10/10 10:15:34;;;;;;;7.95;5.28;;;;;;;;;;5085781;28;20039;-65
2022/10/10 10:18:26;;;;;;;8.15;5.00;;;;;;;;;;5086032;28;20514;-65
2022/10/10 10:21:12;;;;;;;10.05;5.80;;;;;;;;;;5083287;28;20135;-65
2022/10/10 10:23:42;;;;;;;10.18;5.50;;;;;;;;;;5083855;28;20136;-64
2022/10/10 10:26:28;;;;;;;8.65;5.38;;;;;;;;;;5083819;28;20062;-64
2022/10/10 10:28:56;;;;;;;9.35;5.07;;;;;;;;;;5075737;28;20159;-64
2022/10/10 10:31:29;;;;;;;6.93;4.30;;;;;;;;;;5078001;28;20181;-64
2022/10/10 10:34:24;;;;;;;7.13;4.93;;;;;;;;;;5084463;28;20040;-64
2022/10/10 10:37:16;;;;;;;6.90;4.82;;;;;;;;;;5080715;28;20119;-64
2022/10/10 10:40:17;;;;;;;7.55;5.10;;;;;;;;;;5083425;28;20035;-64
2022/10/10 10:43:04;;;;;;;14.27;4.80;;;;;;;;;;5049473;28;20040;-64
2022/10/10 10:45:40;;;;;;;10.73;5.47;;;;;;;;;;5091997;28;20043;-64
2022/10/10 10:48:24;;;;;;;8.77;4.90;;;;;;;;;;5078872;28;20463;-64
2022/10/10 10:51:01;;;;;;;12.77;4.93;;;;;;;;;;5081725;28;20725;-65
2022/10/10 10:53:47;;;;;;;8.30;5.03;;;;;;;;;;5080433;28;20036;-65
2022/10/10 10:56:18;;;;;;;7.18;4.65;;;;;;;;;;5081897;28;20428;-64
2022/10/10 10:58:53;;;;;;;11.52;5.38;;;;;;;;;;5081273;28;20055;-65
2022/10/10 11:01:43;;;;;;;7.38;4.63;;;;;;;;;;5081512;28;20044;-65
2022/10/10 11:04:34;;;;;;;12.05;5.03;;;;;;;;;;5081098;28;20513;-64
2022/10/10 11:07:16;;;;;;;13.73;5.22;;;;;;;;;;5080301;28;20055;-66
2022/10/10 11:10:01;;;;;;;6.57;4.53;;;;;;;;;;5083656;28;20123;-66
2022/10/10 11:12:30;;;;;;;6.20;4.60;;;;;;;;;;5076566;28;20036;-65
2022/10/10 11:15:05;;;;;;;11.05;4.80;;;;;;;;;;5083874;28;20513;-64
2022/10/10 11:17:46;;;;;;;9.65;4.60;;;;;;;;;;5074887;28;20061;-65
2022/10/10 11:20:35;;;;;;;14.02;5.15;;;;;;;;;;5082950;28;20038;-66
2022/10/10 11:23:10;;;;;;;9.95;4.65;;;;;;;;;;5080991;28;20044;-65
2022/10/10 11:25:43;;;;;;;9.43;4.47;;;;;;;;;;5078486;28;20037;-65
2022/10/10 11:28:13;;;;;;;11.32;4.40;;;;;;;;;;5082244;28;20067;-64
2022/10/10 11:30:45;;;;;;;5.63;4.35;;;;;;;;;;5081818;28;20035;-64
2022/10/10 11:33:16;;;;;;;9.82;4.40;;;;;;;;;;5079960;28;20816;-64
2022/10/10 11:35:46;;;;;;;13.55;4.60;;;;;;;;;;5081907;28;20048;-65
2022/10/10 11:38:21;;;;;;;11.52;5.00;;;;;;;;;;5084767;28;20113;-65
2022/10/10 11:40:54;;;;;;;10.18;4.55;;;;;;;;;;5082337;28;20059;-65
2022/10/10 11:43:45;;;;;;;16.15;4.38;;;;;;;;;;5082759;28;20089;-65
2022/10/10 11:46:43;;;;;;;9.00;4.00;;;;;;;;;;5079001;28;20063;-65
2022/10/10 11:49:15;;;;;;;9.80;4.13;;;;;;;;;;5081731;28;20062;-64
2022/10/10 11:52:09;;;;;;;9.90;4.03;;;;;;;;;;5083980;28;20074;-64
2022/10/10 11:54:57;;;;;;;7.05;3.38;;;;;;;;;;5081493;28;20040;-64
2022/10/10 11:57:56;;;;;;;7.38;3.25;;;;;;;;;;5083695;28;20043;-65
2022/10/10 12:00:22;;;;;;;10.80;3.05;;;;;;;;;;5080515;28;20071;-64
2022/10/10 12:02:47;;;;;;;5.00;2.83;;;;;;;;;;5083383;28;20391;-64
2022/10/10 12:05:26;;;;;;;6.35;2.97;;;;;;;;;;5078912;28;20063;-65
2022/10/10 12:08:13;;;;;;;12.77;3.05;;;;;;;;;;5078348;28;20503;-64
2022/10/10 12:10:45;;;;;;;5.28;3.00;;;;;;;;;;5079827;28;20593;-64
2022/10/10 12:13:31;;;;;;;6.55;2.85;;;;;;;;;;5083852;28;20044;-64
2022/10/10 12:16:02;;;;;;;5.35;2.50;;;;;;;;;;5081994;28;20048;-65
2022/10/10 12:18:31;;;;;;;5.75;2.55;;;;;;;;;;5082148;28;20142;-65
2022/10/10 12:21:05;;;;;;;7.05;3.20;;;;;;;;;;5077629;28;20083;-64
2022/10/10 12:23:32;;;;;;;5.13;2.80;;;;;;;;;;5081223;28;20052;-64
2022/10/10 12:25:58;;;;;;;5.47;2.50;;;;;;;;;;5079989;28;20138;-65
2022/10/10 12:28:33;;;;;;;10.52;2.70;;;;;;;;;;5079876;28;20569;-65
2022/10/10 12:31:04;;;;;;;4.32;2.67;;;;;;;;;;5082644;28;20044;-65
2022/10/10 12:33:32;;;;;;;9.32;2.47;;;;;;;;;;5083605;28;20024;-64
2022/10/10 12:36:19;;;;;;;7.03;2.72;;;;;;;;;;5082077;28;20031;-64
2022/10/10 12:39:00;;;;;;;7.97;3.00;;;;;;;;;;5081551;28;20068;-65
2022/10/10 12:41:49;;;;;;;9.82;2.70;;;;;;;;;;5080811;28;20056;-68
2022/10/10 12:44:23;;;;;;;8.60;2.42;;;;;;;;;;5077517;28;20063;-68
2022/10/10 12:47:13;;;;;;;10.05;2.83;;;;;;;;;;5081123;28;20039;-67
2022/10/10 12:49:57;;;;;;;5.38;2.40;;;;;;;;;;5077353;28;20165;-68
2022/10/10 12:52:27;;;;;;;6.40;2.90;;;;;;;;;;5085449;28;20048;-68
2022/10/10 12:55:00;;;;;;;8.32;2.50;;;;;;;;;;5080416;28;20403;-68
2022/10/10 12:57:40;;;;;;;5.47;2.33;;;;;;;;;;5077476;28;20426;-68
2022/10/10 13:00:17;;;;;;;4.28;2.42;;;;;;;;;;5082040;28;20072;-68
2022/10/10 13:02:47;;;;;;;9.23;2.58;;;;;;;;;;5081515;28;20452;-68
2022/10/10 13:05:17;;;;;;;6.32;2.30;;;;;;;;;;5078313;28;20062;-69
2022/10/10 13:07:45;;;;;;;10.35;2.63;;;;;;;;;;5080179;28;20043;-68
2022/10/10 13:10:26;;;;;;;8.60;2.38;;;;;;;;;;5079202;28;20052;-69
2022/10/10 13:13:03;;;;;;;3.38;2.20;;;;;;;;;;5078113;28;20048;-69
2022/10/10 13:15:30;;;;;;;5.95;2.55;;;;;;;;;;5081056;28;20044;-68
2022/10/10 13:17:56;;;;;;;3.83;2.15;;;;;;;;;;5079814;28;20050;-69
2022/10/10 13:20:28;;;;;;;6.85;2.15;;;;;;;;;;5083337;28;20581;-68
2022/10/10 13:22:55;;;;;;;5.80;2.40;;;;;;;;;;5083609;28;20052;-68
2022/10/10 13:25:20;;;;;;;6.75;2.45;;;;;;;;;;5078910;28;20044;-68
2022/10/10 13:27:46;;;;;;;7.28;2.40;;;;;;;;;;5077961;28;20467;-68
2022/10/10 13:30:22;;;;;;;7.97;2.42;;;;;;;;;;5079524;28;20676;-70
2022/10/10 13:32:49;;;;;;;4.45;2.00;;;;;;;;;;5080884;28;20554;-69
2022/10/10 13:35:26;;;;;;;4.07;2.25;;;;;;;;;;5081419;28;20066;-69
2022/10/10 13:38:00;;;;;;;5.13;1.90;;;;;;;;;;5079954;28;20498;-69
2022/10/10 13:40:27;;;;;;;4.35;2.17;;;;;;;;;;5079858;28;20054;-68
2022/10/10 13:42:53;;;;;;;10.27;2.33;;;;;;;;;;5081346;28;20080;-69
2022/10/10 13:45:22;;;;;;;5.82;2.30;;;;;;;;;;5078950;28;20059;-69
2022/10/10 13:48:00;;;;;;;7.30;2.30;;;;;;;;;;5079728;28;20128;-70
2022/10/10 13:50:29;;;;;;;5.40;2.22;;;;;;;;;;5081445;28;20083;-69
2022/10/10 13:53:33;;;;;;;7.07;2.08;;;;;;;;;;5079295;28;20067;-69
2022/10/10 13:56:21;;;;;;;4.85;2.40;;;;;;;;;;5078573;28;20104;-69
2022/10/10 13:59:06;;;;;;;8.07;2.10;;;;;;;;;;5079017;28;20040;-69
2022/10/10 14:01:34;;;;;;;6.82;1.90;;;;;;;;;;5074465;28;20098;-68
2022/10/10 14:04:42;;;;;;;8.43;2.20;;;;;;;;;;5081466;28;20078;-69
2022/10/10 14:07:16;;;;;;;8.20;2.08;;;;;;;;;;5076677;28;20052;-68
2022/10/10 14:09:50;;;;;;;9.23;2.15;;;;;;;;;;5078383;28;20034;-68
2022/10/10 14:12:37;;;;;;;4.43;1.80;;;;;;;;;;5079431;28;20479;-69
2022/10/10 14:15:03;;;;;;;7.30;1.88;;;;;;;;;;5078686;28;20678;-67
2022/10/10 14:17:29;;;;;;;5.80;2.40;;;;;;;;;;5069970;28;20046;-53
2022/10/10 14:19:55;;;;;;;5.15;2.10;;;;;;;;;;5080142;28;20052;-56
2022/10/10 14:22:21;;;;;;;6.35;2.33;;;;;;;;;;5079395;28;20353;-56
2022/10/10 14:24:47;;;;;;;4.35;2.05;;;;;;;;;;5083660;28;20478;-56
2022/10/10 14:27:18;;;;;;;8.45;2.40;;;;;;;;;;5078890;28;20024;-56
2022/10/10 14:29:44;;;;;;;4.55;2.00;;;;;;;;;;5078146;28;20131;-56
2022/10/10 14:32:12;;;;;;;6.53;2.15;;;;;;;;;;5084762;28;20048;-57
2022/10/10 14:34:38;;;;;;;5.18;2.05;;;;;;;;;;5077358;28;20157;-57
2022/10/10 14:37:04;;;;;;;6.43;2.03;;;;;;;;;;5081717;28;20044;-58
2022/10/10 14:39:30;;;;;;;4.55;2.30;;;;;;;;;;5079469;28;23136;-54
2022/10/10 14:41:56;;;;;;;7.53;2.42;;;;;;;;;;5079138;28;20032;-56
2022/10/10 14:44:22;;;;;;;11.27;2.40;;;;;;;;;;5083309;28;20134;-57
2022/10/10 14:46:47;;;;;;;7.07;2.13;;;;;;;;;;5081545;28;20178;-56
2022/10/10 14:49:18;;;;;;;6.18;2.28;;;;;;;;;;5082918;28;20056;-57
2022/10/10 14:51:44;;;;;;;7.40;2.50;;;;;;;;;;5084895;28;20020;-53
2022/10/10 14:54:09;;;;;;;7.68;2.30;;;;;;;;;;5080176;28;20067;-56
2022/10/10 14:56:35;;;;;;;5.93;2.28;;;;;;;;;;5085147;28;20047;-56
2022/10/10 14:59:00;;;;;;;10.85;2.42;;;;;;;;;;5082905;28;20121;-57
2022/10/10 15:01:25;;;;;;;7.20;2.50;;;;;;;;;;5081895;28;20071;-56
2022/10/10 15:03:51;;;;;;;4.95;2.00;;;;;;;;;;5079627;28;20745;-57